Terminal Aerodrome Forecast
Issued by NWS

Home | Current Version | Previous Version | Text Only | Print | Product List | Glossary On
Versions: 1 2 3 4 5 6 7 8 9 10 11 12 13
000
FTUS46 KMTR 301242 AAA
TAFSJC
TAF AMD
KSJC 301242Z 3013/3112 32003KT P6SM BKN014
     FM301500 32006KT P6SM FEW015
     FM301900 30010KT P6SM SCT250
     FM302200 30012KT P6SM SCT250
     FM310300 30009KT P6SM SCT250
     FM311000 32004KT P6SM BKN015=

USA.gov is the U.S. government's official web portal to all federal, state and local government web resources and services.